Time;durP1;ratioP1;P1;durP2;ratioP2;P2;SDS_P1;SDS_P2;PMS_P1;PMS_P2;Temp;Humidity;BMP_temperature;BMP_pressure;BME280_temperature;BME280_humidity;BME280_pressure;Samples;Min_cycle;Max_cycle;Signal;HPM_P1;HPM_P2
2023/10/23 00:01:13;;;;;;;0.40;0.40;;;19.30;67.50;;;;;;6208202;23;20206;-84
2023/10/23 00:03:42;;;;;;;8.03;1.00;;;19.20;67.30;;;;;;6208295;23;20169;-86
2023/10/23 00:06:11;;;;;;;1.23;0.80;;;19.30;67.30;;;;;;6209037;23;20629;-84
2023/10/23 00:08:39;;;;;;;1.60;0.73;;;19.20;67.30;;;;;;6207366;23;20195;-85
2023/10/23 00:11:10;;;;;;;0.40;0.40;;;19.20;67.70;;;;;;6207411;23;20238;-84
2023/10/23 00:13:38;;;;;;;0.47;0.37;;;19.10;67.70;;;;;;6209079;23;20171;-85
2023/10/23 00:16:08;;;;;;;0.40;0.40;;;19.10;67.90;;;;;;6207463;23;20171;-84
2023/10/23 00:18:36;;;;;;;0.40;0.40;;;19.10;68.00;;;;;;6207602;23;20182;-84
2023/10/23 00:21:05;;;;;;;7.03;1.20;;;19.10;67.90;;;;;;6207521;23;20171;-85
2023/10/23 00:23:33;;;;;;;0.60;0.60;;;19.00;67.80;;;;;;6206667;23;20237;-85
2023/10/23 00:26:02;;;;;;;1.67;0.90;;;19.10;68.20;;;;;;6207732;23;20164;-85
2023/10/23 00:28:32;;;;;;;1.00;0.90;;;19.10;68.10;;;;;;6211732;23;20241;-86
2023/10/23 00:31:01;;;;;;;0.37;0.37;;;19.00;68.20;;;;;;6210065;23;20199;-84
2023/10/23 00:33:30;;;;;;;1.33;1.07;;;19.00;68.50;;;;;;6207572;23;20163;-85
2023/10/23 00:35:58;;;;;;;0.40;0.40;;;19.00;68.30;;;;;;6207765;23;20175;-84
2023/10/23 00:38:28;;;;;;;0.30;0.30;;;18.90;68.50;;;;;;6207994;23;20694;-84
2023/10/23 00:40:57;;;;;;;1.70;1.57;;;18.90;68.60;;;;;;6210737;23;20191;-84
2023/10/23 00:43:26;;;;;;;5.53;1.10;;;18.90;68.60;;;;;;6210527;23;20163;-83
2023/10/23 00:46:00;;;;;;;1.10;1.00;;;18.90;68.50;;;;;;6207576;23;20185;-83
2023/10/23 00:48:29;;;;;;;4.37;1.23;;;18.90;68.60;;;;;;6209049;23;20178;-85
2023/10/23 00:50:59;;;;;;;2.57;1.27;;;18.90;68.80;;;;;;6208738;23;20205;-85
2023/10/23 00:53:32;;;;;;;0.67;0.67;;;18.90;69.60;;;;;;6209244;23;20175;-84
2023/10/23 00:56:04;;;;;;;2.23;0.63;;;18.80;68.60;;;;;;6208555;23;20167;-84
2023/10/23 00:58:34;;;;;;;1.73;0.83;;;18.80;68.60;;;;;;6210094;23;20171;-86
2023/10/23 01:01:05;;;;;;;0.83;0.83;;;18.80;68.50;;;;;;6210557;23;20163;-85
2023/10/23 01:03:34;;;;;;;1.43;1.33;;;18.90;69.00;;;;;;6210857;23;20167;-84
2023/10/23 01:06:03;;;;;;;0.47;0.47;;;18.80;69.00;;;;;;6207399;23;20172;-83
2023/10/23 01:08:33;;;;;;;1.17;0.93;;;18.80;68.90;;;;;;6209131;23;20167;-85
2023/10/23 01:11:01;;;;;;;2.10;1.53;;;18.80;69.20;;;;;;6207453;23;20195;-83
2023/10/23 01:13:30;;;;;;;1.30;1.03;;;18.80;69.30;;;;;;6206875;23;20222;-83
2023/10/23 01:15:58;;;;;;;3.80;2.43;;;18.80;69.40;;;;;;6207674;23;20578;-85
2023/10/23 01:18:29;;;;;;;2.47;2.23;;;18.70;69.40;;;;;;6210047;23;20189;-85
2023/10/23 01:21:01;;;;;;;3.07;1.47;;;18.70;69.40;;;;;;6209065;23;20171;-85
2023/10/23 01:23:34;;;;;;;1.27;0.60;;;18.70;69.30;;;;;;6207984;23;20171;-84
2023/10/23 01:26:04;;;;;;;0.50;0.50;;;18.60;69.10;;;;;;6205877;23;20169;-86
2023/10/23 01:28:32;;;;;;;1.43;1.03;;;18.60;69.10;;;;;;6210000;23;20185;-86
2023/10/23 01:31:01;;;;;;;1.37;1.10;;;18.60;69.10;;;;;;6207861;23;20202;-84
2023/10/23 01:33:30;;;;;;;6.10;1.67;;;18.60;69.10;;;;;;6209551;23;20167;-84
2023/10/23 01:35:58;;;;;;;1.33;1.23;;;18.60;69.10;;;;;;6208309;23;20177;-83
2023/10/23 01:38:27;;;;;;;1.00;0.97;;;18.60;69.10;;;;;;6206471;23;20163;-84
2023/10/23 01:40:55;;;;;;;2.10;1.83;;;18.60;69.30;;;;;;6209244;23;20175;-84
2023/10/23 01:43:25;;;;;;;5.20;1.83;;;18.50;69.50;;;;;;6204588;23;20171;-84
2023/10/23 01:45:53;;;;;;;0.90;0.70;;;18.60;69.80;;;;;;6208003;23;20167;-85
2023/10/23 01:48:23;;;;;;;1.47;1.07;;;18.50;69.70;;;;;;6205590;23;20199;-85
2023/10/23 01:50:51;;;;;;;3.90;2.77;;;18.50;69.80;;;;;;6209008;23;20218;-85
2023/10/23 01:53:21;;;;;;;2.90;1.23;;;18.50;70.30;;;;;;6208011;23;20498;-81
2023/10/23 01:55:50;;;;;;;2.80;1.73;;;18.40;70.00;;;;;;6208091;23;20265;-85
2023/10/23 01:58:19;;;;;;;1.17;1.10;;;18.40;70.00;;;;;;6206780;23;20205;-84
2023/10/23 02:00:49;;;;;;;1.93;1.73;;;18.40;70.00;;;;;;6210836;23;20246;-84
2023/10/23 02:03:18;;;;;;;1.83;1.40;;;18.40;70.50;;;;;;6209947;23;20167;-84
2023/10/23 02:05:47;;;;;;;1.53;1.43;;;18.30;70.80;;;;;;6211793;23;20167;-84
2023/10/23 02:08:18;;;;;;;0.97;0.70;;;18.30;70.70;;;;;;6220224;23;20167;-84
2023/10/23 02:10:47;;;;;;;1.07;0.50;;;18.30;70.60;;;;;;6229554;23;20367;-84
2023/10/23 02:13:16;;;;;;;1.00;1.00;;;18.40;70.50;;;;;;6231414;23;20177;-85
2023/10/23 02:15:44;;;;;;;1.03;0.97;;;18.40;70.40;;;;;;6232432;23;20223;-86
2023/10/23 02:18:14;;;;;;;4.33;2.30;;;18.40;70.30;;;;;;6231004;23;20221;-83
2023/10/23 02:20:50;;;;;;;2.00;1.80;;;18.40;70.20;;;;;;6227663;23;20205;-84
2023/10/23 02:23:19;;;;;;;7.17;2.80;;;18.40;70.60;;;;;;6225332;23;20171;-84
2023/10/23 02:26:00;;;;;;;2.33;1.63;;;18.30;70.60;;;;;;6226310;23;20171;-84
2023/10/23 02:28:32;;;;;;;1.70;1.50;;;18.40;70.80;;;;;;6226406;23;20174;-84
2023/10/23 02:31:03;;;;;;;1.37;1.20;;;18.30;70.90;;;;;;6215417;23;20309;-85
2023/10/23 02:33:36;;;;;;;3.60;1.47;;;18.30;70.80;;;;;;6211190;23;20207;-85
2023/10/23 02:36:05;;;;;;;8.03;2.00;;;18.30;70.90;;;;;;6209826;23;20885;-86
2023/10/23 02:38:33;;;;;;;2.57;1.93;;;18.30;71.20;;;;;;6211549;23;20171;-85
2023/10/23 02:41:02;;;;;;;7.13;1.80;;;18.30;71.10;;;;;;6209741;23;20182;-85
2023/10/23 02:43:30;;;;;;;1.07;0.80;;;18.20;70.90;;;;;;6208628;23;20175;-84
2023/10/23 02:46:01;;;;;;;1.33;1.23;;;18.20;71.10;;;;;;6209372;23;20202;-83
2023/10/23 02:48:31;;;;;;;2.23;1.43;;;18.20;71.30;;;;;;6208148;23;20233;-84
2023/10/23 02:51:04;;;;;;;1.90;1.30;;;18.20;71.20;;;;;;6213593;23;20864;-85
2023/10/23 02:53:32;;;;;;;1.43;1.33;;;18.20;71.20;;;;;;6209332;23;20250;-85
2023/10/23 02:56:02;;;;;;;5.50;1.90;;;18.20;71.50;;;;;;6183383;23;20163;-83
2023/10/23 02:58:33;;;;;;;2.20;1.37;;;18.10;71.60;;;;;;6211898;23;20178;-84
2023/10/23 03:01:01;;;;;;;1.63;1.43;;;18.10;71.80;;;;;;6210277;23;20617;-84
2023/10/23 03:03:30;;;;;;;2.13;1.43;;;18.10;71.90;;;;;;6212075;23;20181;-84
2023/10/23 03:06:00;;;;;;;2.90;1.50;;;18.10;72.00;;;;;;6209905;23;20621;-84
2023/10/23 03:08:30;;;;;;;2.83;1.87;;;18.10;71.80;;;;;;6209373;23;20168;-84
2023/10/23 03:10:59;;;;;;;1.37;1.03;;;18.10;71.70;;;;;;6209766;23;20179;-85
2023/10/23 03:13:28;;;;;;;2.23;1.53;;;18.10;71.60;;;;;;6210226;23;20178;-83
2023/10/23 03:16:26;;;;;;;4.87;2.87;;;18.10;71.90;;;;;;6210990;23;20167;-84
2023/10/23 03:22:22;;;;;;;1.73;1.63;;;18.10;71.60;;;;;;6210646;23;20183;-84
2023/10/23 03:25:05;;;;;;;2.00;1.67;;;18.00;71.80;;;;;;6214642;23;20497;-83
2023/10/23 03:28:06;;;;;;;2.63;2.43;;;18.00;71.80;;;;;;6211347;23;20613;-83
2023/10/23 03:30:41;;;;;;;4.27;2.83;;;18.00;71.80;;;;;;6212755;23;20191;-84
2023/10/23 03:33:10;;;;;;;1.67;1.03;;;18.10;71.80;;;;;;6209810;23;20620;-84
2023/10/23 03:35:43;;;;;;;1.87;1.40;;;18.00;71.80;;;;;;6211748;23;20242;-83
2023/10/23 03:38:20;;;;;;;0.97;0.90;;;18.00;71.80;;;;;;6210164;23;20167;-83
2023/10/23 03:41:02;;;;;;;1.17;1.00;;;18.00;71.70;;;;;;6212155;23;20202;-85
2023/10/23 03:43:34;;;;;;;4.03;1.87;;;18.00;71.70;;;;;;6212739;23;20175;-85
2023/10/23 03:46:03;;;;;;;6.43;2.20;;;18.00;71.70;;;;;;6214530;23;20247;-84
2023/10/23 03:48:36;;;;;;;2.30;1.07;;;18.00;71.70;;;;;;6211964;23;20209;-84
2023/10/23 03:51:05;;;;;;;2.20;2.00;;;18.00;71.70;;;;;;6212853;23;20207;-85
2023/10/23 03:53:34;;;;;;;2.23;2.03;;;18.00;71.70;;;;;;6212553;23;20346;-85
2023/10/23 03:56:07;;;;;;;3.10;1.00;;;18.00;71.80;;;;;;6214264;23;20170;-85
2023/10/23 03:58:35;;;;;;;0.93;0.93;;;18.00;71.60;;;;;;6214536;23;20175;-85
2023/10/23 04:01:04;;;;;;;0.80;0.70;;;18.00;71.60;;;;;;6214987;23;20171;-85
2023/10/23 04:03:32;;;;;;;0.87;0.83;;;18.00;71.60;;;;;;6221077;23;20174;-85
2023/10/23 04:06:03;;;;;;;1.33;1.07;;;18.00;71.60;;;;;;6229364;23;20174;-83
2023/10/23 04:08:32;;;;;;;2.27;1.23;;;18.00;71.60;;;;;;6230416;23;20214;-85
2023/10/23 04:11:00;;;;;;;1.73;1.63;;;18.00;71.60;;;;;;6229617;23;20207;-84
2023/10/23 04:13:30;;;;;;;1.07;0.73;;;18.00;71.60;;;;;;6230271;23;20195;-83
2023/10/23 04:16:00;;;;;;;2.20;1.67;;;18.00;71.60;;;;;;6203919;23;20270;-85
2023/10/23 04:18:29;;;;;;;1.00;0.90;;;18.00;71.60;;;;;;6230225;23;20190;-84
2023/10/23 04:21:05;;;;;;;1.83;1.27;;;18.00;71.60;;;;;;6231115;23;20242;-85
2023/10/23 04:23:34;;;;;;;2.27;1.37;;;18.00;71.60;;;;;;6231205;23;20195;-84
2023/10/23 04:26:04;;;;;;;1.43;1.33;;;18.00;71.80;;;;;;6230506;23;20218;-84
2023/10/23 04:28:35;;;;;;;2.73;2.03;;;18.00;71.90;;;;;;6231495;23;20223;-86
2023/10/23 04:31:04;;;;;;;2.37;1.10;;;18.00;71.90;;;;;;6231126;23;20195;-84
2023/10/23 04:33:33;;;;;;;2.30;2.03;;;18.00;71.90;;;;;;6231562;23;20253;-84
2023/10/23 04:36:04;;;;;;;3.87;1.17;;;18.10;72.00;;;;;;6231085;23;20225;-84
2023/10/23 04:38:48;;;;;;;1.53;1.43;;;18.00;71.90;;;;;;6235545;23;20178;-83
2023/10/23 04:41:27;;;;;;;2.13;1.63;;;18.00;71.90;;;;;;6235413;23;20406;-84
2023/10/23 04:43:58;;;;;;;2.83;2.33;;;18.10;71.90;;;;;;6226051;23;20183;-85
2023/10/23 04:46:26;;;;;;;1.83;1.53;;;18.10;72.00;;;;;;6218104;23;20227;-85
2023/10/23 04:48:58;;;;;;;4.63;1.07;;;18.10;71.90;;;;;;6219285;23;20171;-85
2023/10/23 04:51:28;;;;;;;0.50;0.40;;;18.10;72.00;;;;;;6219731;23;20167;-85
2023/10/23 04:54:06;;;;;;;2.80;1.43;;;18.10;72.00;;;;;;6219314;23;20191;-85
2023/10/23 04:56:34;;;;;;;2.40;1.63;;;18.10;72.20;;;;;;6220277;23;20170;-84
2023/10/23 04:59:16;;;;;;;1.70;1.43;;;18.10;72.20;;;;;;6220753;23;20171;-86
2023/10/23 05:02:04;;;;;;;1.17;0.83;;;18.00;72.10;;;;;;6219358;23;20190;-84
2023/10/23 05:04:40;;;;;;;2.03;1.50;;;18.10;72.30;;;;;;6220705;23;20167;-84
2023/10/23 05:07:36;;;;;;;3.10;2.27;;;18.00;72.50;;;;;;6220053;23;20171;-86
2023/10/23 05:10:35;;;;;;;4.53;1.90;;;18.00;72.70;;;;;;6220326;23;20242;-84
2023/10/23 05:13:06;;;;;;;4.27;1.50;;;18.00;72.70;;;;;;6218030;23;20527;-83
2023/10/23 05:15:36;;;;;;;2.47;1.33;;;18.00;72.60;;;;;;6216162;23;20167;-84
2023/10/23 05:18:04;;;;;;;1.60;1.47;;;18.00;73.00;;;;;;6215127;23;20163;-86
2023/10/23 05:20:35;;;;;;;3.17;1.53;;;18.00;73.20;;;;;;6214648;23;20173;-85
2023/10/23 05:23:05;;;;;;;21.83;3.37;;;18.00;74.00;;;;;;6214377;23;20195;-86
2023/10/23 05:25:37;;;;;;;5.23;2.57;;;18.00;75.20;;;;;;6214779;23;20167;-86
2023/10/23 05:28:06;;;;;;;4.47;2.80;;;18.00;74.70;;;;;;6215019;23;20167;-85
2023/10/23 05:30:37;;;;;;;6.37;3.13;;;17.90;74.40;;;;;;6214142;23;20191;-81
2023/10/23 05:33:06;;;;;;;3.87;2.73;;;17.90;74.50;;;;;;6214307;23;20209;-87
2023/10/23 05:35:50;;;;;;;5.40;3.70;;;18.00;74.50;;;;;;6213967;23;20167;-85
2023/10/23 05:38:19;;;;;;;3.00;2.00;;;18.00;74.60;;;;;;6215842;23;20190;-86
2023/10/23 05:40:48;;;;;;;7.00;3.70;;;18.00;74.90;;;;;;6219551;23;20190;-86
2023/10/23 05:43:17;;;;;;;7.50;3.07;;;18.10;75.00;;;;;;6197299;23;20215;-87
2023/10/23 05:45:47;;;;;;;1.93;1.23;;;18.10;74.70;;;;;;6219490;23;20164;-85
2023/10/23 05:48:18;;;;;;;6.63;3.13;;;18.10;75.30;;;;;;6218954;23;20494;-83
2023/10/23 05:50:58;;;;;;;1.80;1.53;;;18.10;75.30;;;;;;6220457;23;20224;-84
2023/10/23 05:53:28;;;;;;;3.57;1.77;;;18.20;75.10;;;;;;6220872;23;20247;-85
2023/10/23 05:56:03;;;;;;;0.83;0.70;;;18.20;75.20;;;;;;6220058;23;20163;-86
2023/10/23 05:58:35;;;;;;;3.80;1.40;;;18.20;75.20;;;;;;6218790;23;20177;-84
2023/10/23 06:01:09;;;;;;;0.90;0.90;;;18.20;75.10;;;;;;6219802;23;20178;-85
2023/10/23 06:03:39;;;;;;;1.60;1.33;;;18.30;75.30;;;;;;6220736;23;20166;-88
2023/10/23 06:06:12;;;;;;;1.40;1.27;;;18.30;75.30;;;;;;6219757;23;20167;-87
2023/10/23 06:08:41;;;;;;;5.20;1.57;;;18.40;75.10;;;;;;6221418;23;20162;-89
2023/10/23 06:11:11;;;;;;;3.50;1.90;;;18.40;74.90;;;;;;6217481;23;20167;-86
2023/10/23 06:13:44;;;;;;;5.80;1.80;;;18.50;75.00;;;;;;6219639;23;20195;-88
2023/10/23 06:16:16;;;;;;;1.33;0.90;;;18.50;74.70;;;;;;6220541;23;20250;-86
2023/10/23 06:18:45;;;;;;;0.40;0.40;;;18.60;74.60;;;;;;6219413;23;20155;-86
2023/10/23 06:21:14;;;;;;;2.03;1.43;;;18.60;74.30;;;;;;6221176;23;20167;-87
2023/10/23 06:23:43;;;;;;;0.30;0.30;;;18.70;74.30;;;;;;6222589;23;20602;-85
2023/10/23 06:26:16;;;;;;;1.47;1.13;;;18.70;74.10;;;;;;6221482;23;20198;-86
2023/10/23 06:28:45;;;;;;;0.50;0.50;;;18.80;74.00;;;;;;6218592;23;20266;-87
2023/10/23 06:31:18;;;;;;;1.50;0.93;;;18.90;73.90;;;;;;6217719;23;20164;-82
2023/10/23 06:33:48;;;;;;;0.53;0.53;;;18.90;73.80;;;;;;6218849;23;20656;-83
2023/10/23 06:40:14;;;;;;;0.63;0.60;;;19.00;73.70;;;;;;6210392;23;20270;-82
2023/10/23 06:42:49;;;;;;;0.60;0.60;;;19.10;73.60;;;;;;6210265;23;20175;-81
2023/10/23 06:45:17;;;;;;;0.33;0.33;;;19.20;73.50;;;;;;6216104;23;20167;-81
2023/10/23 06:47:50;;;;;;;1.00;0.57;;;19.30;73.50;;;;;;6213155;23;20593;-81
2023/10/23 06:50:18;;;;;;;5.30;1.00;;;19.40;73.40;;;;;;6211436;23;20162;-84
2023/10/23 06:52:47;;;;;;;0.73;0.70;;;19.40;73.20;;;;;;6212480;23;20575;-81
2023/10/23 06:55:17;;;;;;;0.40;0.40;;;19.50;73.20;;;;;;6210585;23;20191;-82
2023/10/23 06:57:46;;;;;;;0.35;0.35;;;19.50;73.00;;;;;;6211315;23;20197;-82
2023/10/23 07:00:15;;;;;;;1.77;0.97;;;19.70;73.00;;;;;;6212870;23;20172;-82
2023/10/23 07:02:44;;;;;;;3.13;1.15;;;19.70;72.80;;;;;;6212293;23;20163;-84
2023/10/23 07:05:15;;;;;;;0.45;0.45;;;19.80;72.70;;;;;;6210654;23;20195;-82
2023/10/23 07:07:44;;;;;;;0.60;0.60;;;19.90;72.80;;;;;;6207065;23;20175;-83
2023/10/23 07:10:12;;;;;;;0.87;0.83;;;19.90;72.60;;;;;;6209052;23;20172;-82
2023/10/23 07:12:41;;;;;;;0.73;0.70;;;20.10;72.60;;;;;;6213680;23;20155;-84
2023/10/23 07:19:04;;;;;;;2.17;0.95;;;20.20;72.20;;;;;;5979774;23;20254;-83
2023/10/23 07:21:35;;;;;;;2.25;1.20;;;20.30;72.00;;;;;;6208131;23;20179;-84
2023/10/23 07:24:06;;;;;;;0.75;0.52;;;20.40;72.00;;;;;;6208656;23;20574;-83
2023/10/23 07:26:34;;;;;;;1.10;0.95;;;20.50;71.90;;;;;;6211998;23;20217;-84
2023/10/23 07:29:02;;;;;;;4.18;1.17;;;20.60;71.90;;;;;;6206844;23;20229;-84
2023/10/23 07:31:31;;;;;;;0.85;0.85;;;20.60;71.70;;;;;;6210856;23;20221;-84
2023/10/23 07:34:03;;;;;;;2.25;1.42;;;20.70;71.40;;;;;;6212402;23;20190;-86
2023/10/23 07:36:32;;;;;;;0.80;0.73;;;20.80;72.10;;;;;;6211629;23;20155;-84
2023/10/23 07:39:02;;;;;;;0.85;0.85;;;20.90;71.30;;;;;;6210343;23;20254;-83
2023/10/23 07:41:30;;;;;;;0.80;0.55;;;20.90;71.10;;;;;;6209521;23;20241;-85
2023/10/23 07:43:59;;;;;;;0.40;0.40;;;21.00;71.10;;;;;;6210324;23;20171;-85
2023/10/23 07:46:28;;;;;;;0.80;0.55;;;21.10;71.00;;;;;;6207475;23;20633;-83
2023/10/23 07:48:57;;;;;;;0.35;0.35;;;21.20;71.00;;;;;;6210411;23;20237;-83
2023/10/23 07:51:26;;;;;;;0.30;0.30;;;21.20;70.80;;;;;;6207857;23;20174;-82
2023/10/23 07:53:58;;;;;;;1.17;1.02;;;21.30;70.50;;;;;;6211533;23;20194;-82
2023/10/23 07:56:28;;;;;;;0.63;0.40;;;21.30;70.40;;;;;;6212333;23;20170;-83
2023/10/23 07:58:57;;;;;;;0.47;0.35;;;21.40;70.40;;;;;;6209769;23;20173;-82
2023/10/23 08:01:25;;;;;;;0.52;0.52;;;21.50;70.50;;;;;;6207670;23;20167;-82
2023/10/23 08:03:54;;;;;;;2.13;1.08;;;21.60;70.20;;;;;;6209411;23;20210;-82
2023/10/23 08:06:25;;;;;;;0.73;0.73;;;21.60;69.80;;;;;;6209903;23;20254;-83
2023/10/23 08:08:54;;;;;;;0.80;0.80;;;21.70;69.70;;;;;;6209987;23;20181;-83
2023/10/23 08:11:23;;;;;;;1.00;0.85;;;21.80;69.70;;;;;;6211434;23;20178;-82
2023/10/23 08:13:53;;;;;;;0.20;0.20;;;21.80;69.50;;;;;;6209565;23;20163;-85
2023/10/23 08:16:21;;;;;;;0.30;0.30;;;21.90;69.40;;;;;;6211141;23;20242;-82
2023/10/23 08:18:50;;;;;;;2.05;0.65;;;22.00;69.40;;;;;;6209945;23;20167;-83
2023/10/23 08:21:21;;;;;;;1.85;0.60;;;22.10;69.40;;;;;;6209975;23;20563;-82
2023/10/23 08:23:54;;;;;;;1.45;0.82;;;22.20;68.60;;;;;;6208719;23;20171;-84
2023/10/23 08:26:22;;;;;;;4.00;0.60;;;22.20;67.80;;;;;;6210454;23;20173;-82
2023/10/23 08:28:52;;;;;;;1.55;1.05;;;22.30;67.90;;;;;;6207907;23;20175;-82
2023/10/23 08:31:30;;;;;;;2.05;0.75;;;22.30;67.60;;;;;;6205202;23;20402;-82
2023/10/23 08:34:02;;;;;;;4.28;0.75;;;22.50;67.90;;;;;;6207269;23;20195;-83
2023/10/23 08:36:31;;;;;;;5.07;0.55;;;22.50;67.90;;;;;;6209484;23;20274;-82
2023/10/23 08:39:00;;;;;;;2.35;1.40;;;22.60;67.00;;;;;;6210812;23;20987;-83
2023/10/23 08:41:29;;;;;;;1.17;0.82;;;22.70;67.00;;;;;;6210135;23;20565;-82
2023/10/23 08:44:00;;;;;;;0.98;0.95;;;22.70;66.00;;;;;;6208363;23;20171;-83
2023/10/23 08:46:31;;;;;;;1.00;0.90;;;22.80;66.30;;;;;;6209385;23;20167;-82
2023/10/23 08:49:01;;;;;;;0.70;0.70;;;22.90;66.20;;;;;;6210755;23;20207;-84
2023/10/23 08:51:31;;;;;;;1.48;0.60;;;23.00;66.00;;;;;;6214750;23;20167;-82
2023/10/23 08:54:06;;;;;;;1.20;0.93;;;23.10;66.10;;;;;;6209628;23;20548;-83
2023/10/23 08:56:43;;;;;;;1.38;0.90;;;23.20;66.10;;;;;;6209827;23;20957;-83
2023/10/23 08:59:15;;;;;;;0.88;0.73;;;23.20;66.00;;;;;;6212388;23;20167;-83
2023/10/23 09:01:43;;;;;;;3.33;2.22;;;23.30;66.20;;;;;;6207677;23;20218;-84
2023/10/23 09:04:12;;;;;;;0.30;0.30;;;23.40;66.20;;;;;;6210408;23;20173;-84
2023/10/23 09:06:42;;;;;;;0.82;0.80;;;23.40;66.10;;;;;;6206125;23;20266;-83
2023/10/23 09:09:11;;;;;;;1.15;0.88;;;23.50;65.60;;;;;;6211648;23;20178;-83
2023/10/23 09:11:43;;;;;;;1.70;1.25;;;23.50;64.90;;;;;;6209768;23;20175;-83
2023/10/23 09:14:26;;;;;;;1.02;0.93;;;23.60;64.80;;;;;;6213019;23;20254;-83
2023/10/23 09:16:57;;;;;;;3.30;1.45;;;23.70;64.70;;;;;;6212611;23;20588;-84
2023/10/23 09:19:27;;;;;;;1.88;0.90;;;23.80;64.60;;;;;;6214602;23;20175;-83
2023/10/23 09:21:57;;;;;;;0.88;0.50;;;23.80;64.60;;;;;;6211729;23;20221;-82
2023/10/23 09:24:25;;;;;;;3.20;1.98;;;24.00;65.70;;;;;;6212256;23;20182;-82
2023/10/23 09:26:55;;;;;;;0.40;0.40;;;24.00;64.40;;;;;;6212098;23;20206;-84
2023/10/23 09:29:26;;;;;;;1.15;0.98;;;24.00;63.70;;;;;;6215302;23;20645;-82
2023/10/23 09:31:57;;;;;;;1.95;1.02;;;24.10;62.90;;;;;;6213537;23;20241;-83
2023/10/23 09:34:26;;;;;;;1.30;1.02;;;24.10;63.30;;;;;;6214516;23;20254;-83
2023/10/23 09:36:56;;;;;;;0.90;0.90;;;24.20;63.20;;;;;;6210975;23;20173;-82
2023/10/23 09:39:24;;;;;;;0.95;0.95;;;24.20;63.20;;;;;;6214319;23;20278;-82
2023/10/23 09:41:56;;;;;;;2.17;0.52;;;24.30;62.50;;;;;;6211731;23;20186;-82
2023/10/23 09:44:28;;;;;;;1.48;0.68;;;24.30;62.70;;;;;;6219021;23;20159;-86
2023/10/23 09:47:00;;;;;;;0.68;0.43;;;24.30;62.70;;;;;;6223128;23;20167;-87
2023/10/23 09:49:31;;;;;;;0.47;0.47;;;24.40;62.80;;;;;;6222158;23;20171;-84
2023/10/23 09:52:01;;;;;;;0.45;0.40;;;24.40;62.60;;;;;;6225911;23;20222;-84
2023/10/23 09:54:32;;;;;;;0.68;0.65;;;24.50;62.50;;;;;;6235920;23;20186;-85
2023/10/23 09:57:04;;;;;;;0.60;0.55;;;24.50;62.20;;;;;;6236068;23;20178;-85
2023/10/23 09:59:44;;;;;;;1.05;0.98;;;24.60;61.20;;;;;;6234421;23;20666;-84
2023/10/23 10:02:19;;;;;;;0.45;0.45;;;24.60;61.50;;;;;;6236559;23;20171;-83
2023/10/23 10:04:57;;;;;;;0.80;0.60;;;24.70;61.30;;;;;;6231877;23;20166;-83
2023/10/23 10:07:49;;;;;;;1.13;0.80;;;24.80;61.60;;;;;;6224955;23;20175;-83
2023/10/23 10:10:22;;;;;;;5.28;0.82;;;24.80;61.60;;;;;;6225850;23;20167;-83
2023/10/23 10:12:57;;;;;;;1.20;0.93;;;24.80;60.70;;;;;;6222334;23;20174;-82
2023/10/23 10:15:34;;;;;;;1.65;1.10;;;24.90;60.90;;;;;;6219788;23;20222;-83
2023/10/23 10:18:04;;;;;;;1.50;1.40;;;24.90;61.00;;;;;;6220131;23;20218;-86
2023/10/23 10:20:35;;;;;;;2.42;0.90;;;24.90;60.70;;;;;;6216302;23;20167;-84
2023/10/23 10:23:11;;;;;;;0.50;0.50;;;24.90;60.90;;;;;;6212274;23;20174;-85
2023/10/23 10:25:43;;;;;;;0.65;0.65;;;25.00;60.70;;;;;;6212848;23;20174;-86
2023/10/23 10:28:12;;;;;;;0.65;0.40;;;25.00;60.50;;;;;;6211863;23;20183;-83
2023/10/23 10:30:47;;;;;;;1.10;1.00;;;25.10;60.50;;;;;;6208629;23;20195;-84
2023/10/23 10:33:24;;;;;;;0.52;0.52;;;25.10;60.00;;;;;;6212017;23;20182;-86
2023/10/23 10:36:14;;;;;;;1.30;1.20;;;25.20;59.90;;;;;;6211573;23;20206;-84
2023/10/23 10:39:05;;;;;;;1.13;1.02;;;25.20;59.00;;;;;;6211203;23;20233;-85
2023/10/23 10:41:38;;;;;;;4.57;1.48;;;25.20;58.60;;;;;;6211359;23;20167;-84
2023/10/23 10:44:11;;;;;;;0.40;0.40;;;25.20;58.40;;;;;;6215569;23;20171;-86
2023/10/23 10:46:44;;;;;;;0.60;0.50;;;25.20;58.30;;;;;;6216904;23;20222;-84
2023/10/23 10:49:20;;;;;;;0.70;0.60;;;25.30;58.30;;;;;;6216437;23;20221;-84
2023/10/23 10:51:50;;;;;;;3.80;1.65;;;25.40;58.80;;;;;;6214613;23;20671;-84
2023/10/23 10:54:22;;;;;;;2.05;1.23;;;25.40;58.90;;;;;;6217731;23;20167;-83
2023/10/23 10:56:52;;;;;;;0.98;0.85;;;25.40;58.60;;;;;;6214044;23;20194;-83
2023/10/23 10:59:27;;;;;;;0.63;0.60;;;25.50;57.60;;;;;;6217058;23;20274;-84
2023/10/23 11:01:58;;;;;;;0.43;0.43;;;25.60;56.80;;;;;;6212484;23;20254;-85
2023/10/23 11:04:27;;;;;;;1.48;0.95;;;25.60;57.00;;;;;;6218348;23;20168;-83
2023/10/23 11:06:56;;;;;;;0.65;0.65;;;25.60;57.20;;;;;;6213152;23;20182;-83
2023/10/23 11:09:25;;;;;;;0.70;0.43;;;25.70;56.30;;;;;;6213201;23;20171;-82
2023/10/23 11:11:54;;;;;;;1.58;0.80;;;25.80;56.20;;;;;;6214161;23;20175;-83
2023/10/23 11:14:25;;;;;;;1.02;0.90;;;25.80;56.40;;;;;;6215180;23;20228;-82
2023/10/23 11:16:54;;;;;;;0.52;0.52;;;25.90;56.80;;;;;;6214956;23;20190;-83
2023/10/23 11:19:28;;;;;;;1.30;1.13;;;25.90;56.90;;;;;;6215756;23;20175;-83
2023/10/23 11:22:10;;;;;;;5.63;0.77;;;26.00;56.50;;;;;;6212858;23;20176;-83
2023/10/23 11:24:40;;;;;;;0.20;0.20;;;26.10;56.10;;;;;;6213185;23;20177;-83
2023/10/23 11:27:11;;;;;;;1.50;0.60;;;26.20;56.30;;;;;;6214856;23;20498;-84
2023/10/23 11:29:40;;;;;;;1.05;0.28;;;26.20;55.30;;;;;;6212429;23;20230;-84
2023/10/23 11:32:11;;;;;;;0.65;0.65;;;26.20;55.60;;;;;;6209706;23;20691;-82
2023/10/23 11:34:47;;;;;;;0.40;0.35;;;26.20;55.60;;;;;;6204405;23;20167;-83
2023/10/23 11:37:21;;;;;;;0.60;0.60;;;26.30;55.50;;;;;;6209076;23;20226;-82
2023/10/23 11:39:52;;;;;;;0.40;0.40;;;26.30;55.70;;;;;;6207881;23;20174;-84
2023/10/23 11:42:23;;;;;;;0.45;0.45;;;26.30;55.90;;;;;;6209474;23;20179;-81
2023/10/23 11:44:51;;;;;;;2.25;1.13;;;26.40;55.80;;;;;;6211959;23;20173;-84
2023/10/23 11:47:20;;;;;;;0.45;0.45;;;26.40;55.50;;;;;;6210236;23;20510;-84
2023/10/23 11:49:53;;;;;;;0.47;0.47;;;26.50;56.00;;;;;;6213031;23;20165;-85
2023/10/23 11:52:22;;;;;;;1.98;0.95;;;26.50;56.10;;;;;;6210652;23;20188;-82
2023/10/23 11:54:51;;;;;;;0.40;0.40;;;26.50;55.20;;;;;;6210274;23;20167;-83
2023/10/23 11:57:20;;;;;;;1.00;0.50;;;26.50;55.00;;;;;;6211870;23;20688;-83
2023/10/23 11:59:49;;;;;;;2.25;1.33;;;26.50;55.00;;;;;;6212758;23;20171;-85
2023/10/23 12:02:17;;;;;;;0.73;0.45;;;26.50;54.80;;;;;;6210402;23;20210;-83
2023/10/23 12:04:48;;;;;;;0.77;0.65;;;26.50;55.10;;;;;;6209781;23;20509;-82
2023/10/23 12:07:19;;;;;;;1.83;1.35;;;26.50;55.10;;;;;;6211568;23;20171;-83
2023/10/23 12:09:48;;;;;;;2.42;1.38;;;26.50;55.00;;;;;;6209484;23;20199;-83
2023/10/23 12:12:17;;;;;;;0.52;0.50;;;26.40;54.70;;;;;;6210600;23;20163;-83
2023/10/23 12:14:45;;;;;;;0.30;0.30;;;26.40;54.80;;;;;;6208062;23;20178;-83
2023/10/23 12:17:15;;;;;;;0.35;0.35;;;26.40;55.00;;;;;;6211472;23;20195;-83
2023/10/23 12:19:47;;;;;;;0.40;0.40;;;26.40;55.10;;;;;;6207698;23;20194;-85
2023/10/23 12:22:21;;;;;;;5.20;0.85;;;26.40;54.90;;;;;;6210394;23;20205;-84
2023/10/23 12:24:50;;;;;;;10.77;1.58;;;26.40;54.50;;;;;;6208295;23;20182;-80
2023/10/23 12:27:21;;;;;;;1.42;1.33;;;26.40;54.20;;;;;;6214067;23;20177;-84
2023/10/23 12:29:50;;;;;;;0.47;0.47;;;26.40;54.10;;;;;;6211194;23;20202;-87
2023/10/23 12:32:19;;;;;;;0.88;0.52;;;26.40;54.10;;;;;;6210810;23;20204;-85
2023/10/23 12:35:09;;;;;;;0.35;0.35;;;26.40;54.10;;;;;;6211879;23;20198;-84
2023/10/23 12:37:39;;;;;;;1.70;0.77;;;26.40;54.20;;;;;;6212282;23;20290;-86
2023/10/23 12:40:10;;;;;;;5.32;0.82;;;26.40;54.20;;;;;;6211257;23;20171;-83
2023/10/23 12:42:41;;;;;;;0.32;0.32;;;26.40;54.20;;;;;;6211971;23;20186;-84
2023/10/23 12:45:10;;;;;;;0.43;0.43;;;26.40;54.00;;;;;;6212219;23;20633;-84
2023/10/23 12:47:39;;;;;;;1.02;0.88;;;26.40;54.00;;;;;;6211180;23;20487;-84
2023/10/23 12:50:08;;;;;;;1.70;1.30;;;26.40;54.30;;;;;;6211403;23;20202;-84
2023/10/23 12:52:39;;;;;;;0.45;0.30;;;26.40;54.40;;;;;;6209650;23;20168;-84
2023/10/23 12:55:08;;;;;;;0.65;0.65;;;26.40;54.50;;;;;;6210753;23;20953;-83
2023/10/23 12:57:37;;;;;;;0.40;0.40;;;26.40;54.60;;;;;;6210453;23;20499;-84
2023/10/23 13:00:06;;;;;;;1.63;0.88;;;26.30;54.50;;;;;;6212084;23;20167;-83
2023/10/23 13:02:35;;;;;;;0.28;0.28;;;26.30;54.60;;;;;;6212340;23;20629;-84
2023/10/23 13:05:05;;;;;;;0.63;0.45;;;26.30;54.60;;;;;;6211283;23;20163;-83
2023/10/23 13:07:35;;;;;;;1.30;0.50;;;26.20;54.40;;;;;;6213652;23;20180;-84
2023/10/23 13:10:06;;;;;;;0.95;0.88;;;26.20;54.20;;;;;;6213736;23;20169;-83
2023/10/23 13:12:35;;;;;;;1.25;0.93;;;26.20;54.20;;;;;;6210864;23;20167;-83
2023/10/23 13:15:05;;;;;;;0.95;0.63;;;26.20;54.10;;;;;;6211264;23;20168;-83
2023/10/23 13:17:35;;;;;;;0.32;0.32;;;26.10;54.20;;;;;;6212004;23;20203;-84
2023/10/23 13:20:09;;;;;;;0.82;0.80;;;26.10;54.50;;;;;;6212481;23;20239;-85